MET'MAP v2.0
soon released !

Expected late october,
this new version will be
more efficient, smarter,
and hosted on a brand new
server x3 powerfull...
...and still free !


Not compatible ?
Try the mobile version !

LOG IN : | Subscribe | Disclaimer | Who is Orbifly ? |
ICAO code :

TAF - EGKB Biggin Hill - 14 Nov 2019 22:39 UTC
Data Sources :     NOAA   


- Airport Elevation : 598 ft
- IATA code : BQH
- No reported NOTAMs.


EGKB - Biggin Hill

Latest METAR recorded : 2015/08/11 07:50 EGKB 110750Z VRB02KT 9999 FEW010 SCT020 14/12 Q1020 RERA
TAF TAF EGKB
Valid from the 14 at 21:00 until the 14 at 23:00 UTC


141957Z 1421/1423 06005KT 9999 SCT025
PROB30
TEMPO 1421/1423 7000 SHRA

Source NOAA


MET'MAP, your aeronautical weather chart ! - Copyright ORBIFLY December 2007

Programming & Development : Alexandra Zaïnal
Co-Developer : Marc-Olivier Méhu
Technical & hardware support : Manuel Goepfert
Concept & Financing : Baudouin d'Aumeries